createdAt,value
2018-06-01T00:01:40.587Z,23.33
2018-06-01T00:04:06.861Z,22.97
2018-06-01T00:06:33.231Z,21.50
2018-06-01T00:08:59.576Z,23.30
2018-06-01T00:11:26.803Z,23.60
2018-06-01T00:13:54.164Z,24.17
2018-06-01T00:16:20.453Z,22.70
2018-06-01T00:18:46.704Z,21.97
2018-06-01T00:21:12.984Z,22.27
2018-06-01T00:23:39.251Z,23.10
2018-06-01T00:26:05.548Z,22.10
2018-06-01T00:28:31.833Z,23.57
2018-06-01T00:30:58.199Z,24.30
2018-06-01T00:33:24.571Z,23.40
2018-06-01T00:35:50.847Z,24.60
2018-06-01T00:38:17.132Z,24.87
2018-06-01T00:40:43.416Z,24.43
2018-06-01T00:43:10.460Z,23.90
2018-06-01T00:45:36.768Z,22.63
2018-06-01T00:48:03.069Z,25.70
2018-06-01T00:50:29.445Z,25.80
2018-06-01T00:52:55.720Z,22.93
2018-06-01T00:55:23.957Z,25.77
2018-06-01T00:57:50.232Z,25.90
2018-06-01T01:00:16.513Z,27.60
2018-06-01T01:02:42.780Z,25.73
2018-06-01T01:05:09.417Z,26.00
2018-06-01T01:07:35.691Z,26.77
2018-06-01T01:10:02.009Z,27.70
2018-06-01T01:12:28.283Z,25.80
2018-06-01T01:14:55.308Z,26.67
2018-06-01T01:17:21.356Z,28.20
2018-06-01T01:19:47.620Z,26.63
2018-06-01T01:22:13.944Z,28.17
2018-06-01T01:24:40.221Z,28.67
2018-06-01T01:27:06.556Z,27.73
2018-06-01T01:29:33.590Z,27.30
2018-06-01T01:31:59.748Z,27.90
2018-06-01T01:34:26.772Z,29.07
2018-06-01T01:36:53.040Z,29.63
2018-06-01T01:39:19.286Z,29.13
2018-06-01T01:41:45.538Z,29.20
2018-06-01T01:44:11.796Z,31.10
2018-06-01T01:46:38.068Z,29.57
2018-06-01T01:49:04.457Z,26.30
2018-06-01T01:51:31.488Z,25.47
2018-06-01T01:53:57.820Z,29.40
2018-06-01T01:56:24.116Z,28.87
2018-06-01T01:58:50.416Z,26.30
2018-06-01T02:01:16.665Z,28.07
2018-06-01T02:03:43.008Z,28.57
2018-06-01T02:06:09.223Z,29.63
2018-06-01T02:08:35.502Z,28.83
2018-06-01T02:11:02.488Z,29.67
2018-06-01T02:13:28.785Z,29.20
2018-06-01T02:15:55.103Z,29.40
2018-06-01T02:18:21.329Z,29.37
2018-06-01T02:20:47.589Z,28.93
2018-06-01T02:23:13.848Z,31.73
2018-06-01T02:25:40.092Z,31.63
2018-06-01T02:28:07.131Z,27.57
2018-06-01T02:30:33.405Z,29.37
2018-06-01T02:32:59.689Z,29.27
2018-06-01T02:35:25.967Z,29.37
2018-06-01T02:37:52.224Z,28.93
2018-06-01T02:40:18.508Z,29.60
2018-06-01T02:42:44.753Z,28.23
2018-06-01T02:45:10.981Z,29.90
2018-06-01T02:47:37.264Z,28.43
2018-06-01T02:50:04.448Z,29.10
2018-06-01T02:52:30.745Z,29.97
2018-06-01T02:54:57.132Z,28.00
2018-06-01T02:57:23.413Z,29.00
2018-06-01T02:59:50.388Z,28.53
2018-06-01T03:02:16.656Z,30.20
2018-06-01T03:04:42.892Z,27.63
2018-06-01T03:07:09.923Z,30.87
2018-06-01T03:09:36.285Z,30.67
2018-06-01T03:12:02.561Z,29.10
2018-06-01T03:14:28.830Z,30.77
2018-06-01T03:16:55.866Z,32.40
2018-06-01T03:19:22.156Z,32.20
2018-06-01T03:21:48.396Z,29.90
2018-06-01T03:24:14.648Z,32.90
2018-06-01T03:26:40.928Z,31.43
2018-06-01T03:29:07.920Z,31.40
2018-06-01T03:31:34.926Z,32.30
2018-06-01T03:34:01.956Z,31.03
2018-06-01T03:36:28.030Z,31.30
2018-06-01T03:38:54.271Z,31.23
2018-06-01T03:41:20.502Z,31.17
2018-06-01T03:43:46.753Z,30.43
2018-06-01T03:46:13.419Z,35.33
2018-06-01T03:48:39.679Z,34.10
2018-06-01T03:51:05.976Z,35.37
2018-06-01T03:53:32.219Z,34.33
2018-06-01T03:55:58.460Z,34.27
2018-06-01T03:58:24.701Z,31.27
2018-06-01T04:00:50.914Z,31.80
2018-06-01T04:03:17.104Z,32.10
2018-06-01T04:05:43.383Z,32.83
2018-06-01T04:08:10.367Z,35.00
2018-06-01T04:10:36.615Z,33.40
2018-06-01T04:13:02.877Z,36.80
2018-06-01T04:15:29.150Z,35.70
2018-06-01T04:17:56.163Z,35.80
2018-06-01T04:20:22.432Z,40.30
2018-06-01T04:22:48.707Z,38.00
2018-06-01T04:25:14.939Z,39.20
2018-06-01T04:27:41.334Z,41.80
2018-06-01T04:30:07.552Z,38.90
2018-06-01T04:32:33.918Z,39.37
2018-06-01T04:35:00.193Z,36.80
2018-06-01T04:37:26.453Z,41.23
2018-06-01T04:39:52.773Z,37.10
2018-06-01T04:42:19.794Z,39.77
2018-06-01T04:44:46.056Z,39.17
2018-06-01T04:47:12.312Z,39.43
2018-06-01T04:49:39.363Z,39.93
2018-06-01T04:52:05.646Z,34.77
2018-06-01T04:54:31.909Z,32.93
2018-06-01T04:56:58.175Z,31.97
2018-06-01T04:59:24.388Z,32.50
2018-06-01T05:01:50.648Z,31.60
2018-06-01T05:04:16.909Z,35.40
2018-06-01T05:06:43.900Z,35.53
2018-06-01T05:09:10.863Z,36.10
2018-06-01T05:11:37.126Z,37.00
2018-06-01T05:14:03.392Z,40.60
2018-06-01T05:16:29.731Z,41.43
2018-06-01T05:18:56.657Z,42.40
2018-06-01T05:21:22.927Z,43.87
2018-06-01T05:23:49.163Z,43.13
2018-06-01T05:26:16.144Z,42.20
2018-06-01T05:28:43.188Z,45.10
2018-06-01T05:31:09.467Z,43.47
2018-06-01T05:33:36.445Z,43.43
2018-06-01T05:36:03.310Z,42.67
2018-06-01T05:38:29.626Z,43.97
2018-06-01T05:40:55.884Z,42.07
2018-06-01T05:43:22.145Z,40.67
2018-06-01T05:45:49.151Z,42.97
2018-06-01T05:48:15.542Z,42.33
2018-06-01T05:50:41.827Z,45.07
2018-06-01T05:53:08.187Z,43.20
2018-06-01T05:55:34.433Z,41.30
2018-06-01T05:58:00.705Z,43.43
2018-06-01T06:00:27.719Z,39.57
2018-06-01T06:02:53.967Z,36.43
2018-06-01T06:05:20.949Z,37.87
2018-06-01T06:07:47.964Z,39.33
2018-06-01T06:10:14.207Z,35.47
2018-06-01T06:12:41.277Z,38.13
2018-06-01T06:15:07.502Z,34.13
2018-06-01T06:17:33.719Z,34.33
2018-06-01T06:19:59.960Z,37.70
2018-06-01T06:22:26.176Z,39.20
2018-06-01T06:24:52.404Z,38.37
2018-06-01T06:27:18.620Z,40.70
2018-06-01T06:29:44.851Z,35.93
2018-06-01T06:32:11.475Z,35.37
2018-06-01T06:34:37.729Z,36.63
2018-06-01T06:37:04.060Z,37.10
2018-06-01T06:39:30.211Z,38.47
2018-06-01T06:41:57.160Z,42.27
2018-06-01T06:44:23.452Z,40.60
2018-06-01T06:46:49.804Z,40.70
2018-06-01T06:49:16.040Z,40.77
2018-06-01T06:51:42.291Z,40.50
2018-06-01T06:54:09.281Z,40.27
2018-06-01T06:56:36.282Z,39.13
2018-06-01T06:59:02.500Z,39.37
2018-06-01T07:01:29.432Z,40.37
2018-06-01T07:03:56.459Z,37.80
2018-06-01T07:06:22.675Z,38.87
2018-06-01T07:08:48.925Z,39.87
2018-06-01T07:11:15.200Z,35.63
2018-06-01T07:13:41.592Z,32.63
2018-06-01T07:16:07.868Z,34.30
2018-06-01T07:18:34.167Z,32.87
2018-06-01T07:21:00.455Z,33.30
2018-06-01T07:23:27.105Z,32.93
2018-06-01T07:25:53.465Z,34.33
2018-06-01T07:28:19.724Z,33.30
2018-06-01T07:30:45.972Z,32.47
2018-06-01T07:33:12.247Z,31.97
2018-06-01T07:35:38.488Z,33.67
2018-06-01T07:38:04.817Z,30.93
2018-06-01T07:40:31.101Z,30.83
2018-06-01T07:42:57.437Z,32.80
2018-06-01T07:45:24.852Z,34.20
2018-06-01T07:47:51.248Z,32.67
2018-06-01T07:50:17.543Z,31.43
2018-06-01T07:52:43.825Z,33.30
2018-06-01T07:55:10.075Z,30.60
2018-06-01T07:57:36.368Z,32.50
2018-06-01T08:00:02.766Z,31.50
2018-06-01T08:02:29.008Z,33.60
2018-06-01T08:04:55.219Z,32.43
2018-06-01T08:07:21.430Z,31.67
2018-06-01T08:09:47.665Z,36.87
2018-06-01T08:12:14.636Z,38.10
2018-06-01T08:14:40.882Z,36.33
2018-06-01T08:17:07.119Z,34.73
2018-06-01T08:19:33.363Z,37.43
2018-06-01T08:21:59.595Z,36.77
2018-06-01T08:24:26.610Z,34.70
2018-06-01T08:26:55.235Z,37.53
2018-06-01T08:29:21.503Z,38.13
2018-06-01T08:31:48.464Z,39.70
2018-06-01T08:34:15.415Z,39.20
2018-06-01T08:36:41.617Z,39.57
2018-06-01T08:39:07.861Z,41.17
2018-06-01T08:41:34.867Z,43.80
2018-06-01T08:44:01.908Z,46.90
2018-06-01T08:46:28.945Z,45.47
2018-06-01T08:48:55.860Z,47.93
2018-06-01T08:51:22.092Z,49.77
2018-06-01T08:53:48.336Z,50.87
2018-06-01T08:56:14.643Z,48.60
2018-06-01T08:58:40.863Z,48.40
2018-06-01T09:01:08.979Z,50.10
2018-06-01T09:03:35.258Z,53.00
2018-06-01T09:06:01.501Z,51.70
2018-06-01T09:08:27.732Z,51.93
2018-06-01T09:10:53.977Z,50.53
2018-06-01T09:13:20.225Z,53.50
2018-06-01T09:15:46.457Z,54.37
2018-06-01T09:18:16.032Z,55.70
2018-06-01T09:20:42.279Z,60.57
2018-06-01T09:23:08.524Z,66.57
2018-06-01T09:25:34.781Z,62.27
2018-06-01T09:28:01.776Z,60.67
2018-06-01T09:30:28.013Z,60.80
2018-06-01T09:32:54.243Z,64.50
2018-06-01T09:35:20.479Z,60.37
2018-06-01T09:37:50.931Z,63.57
2018-06-01T09:40:17.887Z,62.30
2018-06-01T09:42:44.108Z,67.67
2018-06-01T09:45:11.104Z,65.07
2018-06-01T09:47:37.340Z,60.10
2018-06-01T09:50:04.437Z,58.67
2018-06-01T09:52:30.659Z,60.10
2018-06-01T09:55:00.057Z,59.37
2018-06-01T09:57:26.300Z,61.67
2018-06-01T09:59:52.561Z,58.60
2018-06-01T10:02:18.796Z,61.90
2018-06-01T10:04:45.769Z,64.23
2018-06-01T10:07:12.053Z,67.70
2018-06-01T10:09:38.287Z,64.80
2018-06-01T10:12:05.613Z,68.60
2018-06-01T10:14:31.931Z,64.03
2018-06-01T10:16:58.948Z,63.00
2018-06-01T10:19:25.239Z,65.17
2018-06-01T10:21:51.497Z,69.07
2018-06-01T10:24:17.728Z,69.87
2018-06-01T10:26:44.010Z,65.70
2018-06-01T10:29:15.428Z,63.20
2018-06-01T10:31:42.440Z,68.87
2018-06-01T10:34:08.716Z,74.10
2018-06-01T10:36:34.990Z,80.47
2018-06-01T10:39:01.248Z,79.70
2018-06-01T10:41:28.243Z,82.13
2018-06-01T10:43:54.557Z,72.83
2018-06-01T10:46:20.872Z,74.00
2018-06-01T10:48:50.830Z,71.60
2018-06-01T10:51:17.161Z,66.10
2018-06-01T10:53:43.482Z,60.97
2018-06-01T10:56:10.507Z,63.37
2018-06-01T10:58:36.789Z,63.73
2018-06-01T11:01:03.175Z,71.87
2018-06-01T11:03:30.178Z,63.63
2018-06-01T11:05:59.359Z,62.10
2018-06-01T11:08:25.560Z,61.90
2018-06-01T11:10:51.767Z,58.60
2018-06-01T11:13:18.008Z,56.97
2018-06-01T11:15:44.241Z,55.40
2018-06-01T11:18:10.486Z,59.30
2018-06-01T11:20:36.683Z,52.30
2018-06-01T11:23:03.685Z,55.53
2018-06-01T11:25:34.080Z,54.00
2018-06-01T11:28:01.071Z,57.00
2018-06-01T11:30:27.325Z,56.00
2018-06-01T11:32:53.599Z,55.53
2018-06-01T11:35:19.846Z,53.13
2018-06-01T11:37:46.071Z,53.67
2018-06-01T11:40:12.307Z,55.33
2018-06-01T11:42:38.541Z,57.47
2018-06-01T11:45:08.818Z,56.80
2018-06-01T11:47:35.564Z,57.73
2018-06-01T11:50:01.808Z,56.30
2018-06-01T11:52:28.041Z,48.53
2018-06-01T11:54:54.277Z,48.00
2018-06-01T11:57:20.531Z,51.10
2018-06-01T11:59:46.814Z,50.63
2018-06-01T12:02:12.992Z,50.40
2018-06-01T12:04:39.320Z,47.47
2018-06-01T12:07:07.529Z,45.03
2018-06-01T12:09:34.492Z,43.97
2018-06-01T12:12:01.597Z,47.40
2018-06-01T12:14:27.892Z,49.87
2018-06-01T12:16:54.143Z,51.53
2018-06-01T12:19:20.404Z,47.87
2018-06-01T12:21:46.669Z,47.30
2018-06-01T12:24:12.960Z,49.57
2018-06-01T12:26:42.401Z,45.53
2018-06-01T12:29:08.746Z,47.60
2018-06-01T12:31:34.956Z,48.80
2018-06-01T12:34:02.028Z,46.57
2018-06-01T12:36:28.320Z,50.50
2018-06-01T12:38:55.319Z,51.83
2018-06-01T12:41:21.592Z,49.27
2018-06-01T12:43:47.836Z,47.57
2018-06-01T12:46:17.508Z,48.10
2018-06-01T12:48:43.745Z,50.33
2018-06-01T12:51:10.026Z,50.50
2018-06-01T12:53:36.288Z,46.93
2018-06-01T12:56:03.348Z,49.20
2018-06-01T12:58:29.642Z,53.60
2018-06-01T13:00:55.869Z,51.70
2018-06-01T13:03:26.229Z,51.23
2018-06-01T13:05:52.476Z,52.83
2018-06-01T13:08:18.707Z,59.00
2018-06-01T13:10:44.951Z,56.33
2018-06-01T13:13:11.197Z,54.67
2018-06-01T13:15:37.457Z,54.70
2018-06-01T13:18:03.720Z,59.47
2018-06-01T13:20:32.331Z,56.93
2018-06-01T13:22:58.638Z,51.60
2018-06-01T13:25:24.927Z,53.47
2018-06-01T13:27:51.908Z,53.13
2018-06-01T13:30:18.179Z,59.13
2018-06-01T13:32:44.457Z,53.87
2018-06-01T13:35:10.758Z,55.43
2018-06-01T13:37:41.336Z,54.10
2018-06-01T13:40:09.059Z,54.80
2018-06-01T13:42:35.328Z,56.30
2018-06-01T13:45:01.590Z,54.53
2018-06-01T13:47:27.852Z,58.57
2018-06-01T13:49:54.112Z,57.20
2018-06-01T13:52:20.559Z,57.47
2018-06-01T13:54:48.500Z,54.87
2018-06-01T13:57:14.748Z,54.53
2018-06-01T13:59:44.504Z,56.10
2018-06-01T14:02:10.752Z,57.27
2018-06-01T14:04:37.040Z,55.27
2018-06-01T14:07:03.284Z,53.80
2018-06-01T14:09:30.344Z,56.37
2018-06-01T14:11:56.585Z,52.53
2018-06-01T14:14:22.814Z,54.93
2018-06-01T14:16:52.494Z,52.90
2018-06-01T14:19:18.756Z,50.13
2018-06-01T14:21:45.005Z,51.10
2018-06-01T14:24:11.179Z,50.43
2018-06-01T14:26:38.169Z,49.50
2018-06-01T14:29:04.495Z,49.33
2018-06-01T14:31:30.808Z,50.07
2018-06-01T14:33:57.020Z,47.00
2018-06-01T14:36:23.319Z,46.17
2018-06-01T14:38:49.509Z,48.27
2018-06-01T14:41:15.734Z,45.27
2018-06-01T14:43:41.949Z,45.80
2018-06-01T14:46:08.211Z,47.43
2018-06-01T14:48:34.432Z,44.23
2018-06-01T14:51:00.685Z,46.27
2018-06-01T14:53:26.896Z,44.90
2018-06-01T14:55:54.228Z,44.90
2018-06-01T14:58:20.460Z,41.83
2018-06-01T15:00:46.715Z,47.00
2018-06-01T15:03:13.671Z,45.40
2018-06-01T15:05:39.899Z,45.20
2018-06-01T15:08:06.868Z,42.93
2018-06-01T15:10:33.879Z,40.67
2018-06-01T15:13:00.072Z,45.07
2018-06-01T15:15:27.046Z,44.17
2018-06-01T15:17:53.630Z,40.90
2018-06-01T15:20:19.670Z,43.50
2018-06-01T15:22:45.913Z,39.70
2018-06-01T15:25:12.132Z,43.47
2018-06-01T15:27:38.427Z,42.73
2018-06-01T15:30:04.696Z,38.90
2018-06-01T15:32:30.940Z,37.67
2018-06-01T15:34:57.179Z,40.00
2018-06-01T15:37:23.447Z,39.53
2018-06-01T15:39:49.641Z,39.60
2018-06-01T15:42:15.940Z,40.10
2018-06-01T15:44:42.171Z,39.03
2018-06-01T15:47:08.371Z,38.27
2018-06-01T15:49:35.300Z,38.70
2018-06-01T15:52:02.324Z,38.60
2018-06-01T15:54:28.564Z,39.17
2018-06-01T15:56:54.816Z,39.13
2018-06-01T15:59:21.818Z,37.90
2018-06-01T16:01:48.888Z,41.27
2018-06-01T16:04:15.122Z,42.27
2018-06-01T16:06:42.122Z,48.47
2018-06-01T16:09:08.498Z,49.33
2018-06-01T16:11:34.768Z,45.97
2018-06-01T16:14:01.008Z,45.83
2018-06-01T16:16:27.274Z,45.30
2018-06-01T16:18:53.548Z,43.40
2018-06-01T16:21:19.920Z,48.93
2018-06-01T16:23:46.172Z,48.23
2018-06-01T16:26:13.120Z,46.00
2018-06-01T16:28:39.401Z,48.63
2018-06-01T16:31:05.658Z,51.00
2018-06-01T16:33:31.916Z,48.70
2018-06-01T16:36:00.502Z,52.80
2018-06-01T16:38:27.097Z,51.20
2018-06-01T16:40:53.388Z,51.27
2018-06-01T16:43:19.643Z,51.93
2018-06-01T16:45:45.900Z,51.33
2018-06-01T16:48:12.893Z,53.13
2018-06-01T16:50:39.152Z,52.10
2018-06-01T16:53:05.407Z,55.00
2018-06-01T16:55:31.629Z,57.47
2018-06-01T16:57:57.873Z,56.77
2018-06-01T17:00:24.169Z,57.93
2018-06-01T17:02:50.480Z,59.73
2018-06-01T17:05:16.760Z,59.57
2018-06-01T17:07:43.035Z,61.27
2018-06-01T17:10:09.336Z,62.83
2018-06-01T17:12:36.332Z,67.47
2018-06-01T17:15:03.575Z,66.43
2018-06-01T17:17:30.050Z,67.53
2018-06-01T17:19:56.413Z,64.37
2018-06-01T17:22:23.439Z,60.47
2018-06-01T17:24:49.704Z,63.73
2018-06-01T17:27:15.979Z,63.03
2018-06-01T17:29:43.021Z,59.60
2018-06-01T17:32:09.444Z,59.93
2018-06-01T17:34:35.752Z,64.17
2018-06-01T17:37:02.152Z,61.47
2018-06-01T17:39:28.474Z,62.47
2018-06-01T17:41:54.910Z,62.07
2018-06-01T17:44:22.187Z,62.07
2018-06-01T17:46:49.460Z,62.60
2018-06-01T17:49:16.687Z,61.47
2018-06-01T17:51:43.275Z,61.57
2018-06-01T17:54:09.755Z,60.10
2018-06-01T17:56:36.089Z,61.23
2018-06-01T17:59:02.526Z,59.60
2018-06-01T18:01:29.845Z,60.50
2018-06-01T18:03:56.297Z,57.23
2018-06-01T18:06:22.683Z,60.10
2018-06-01T18:08:49.682Z,57.37
2018-06-01T18:11:17.144Z,59.60
2018-06-01T18:13:43.495Z,57.70
2018-06-01T18:16:09.894Z,56.50
2018-06-01T18:18:36.331Z,59.37
2018-06-01T18:21:03.600Z,59.97
2018-06-01T18:23:30.066Z,58.60
2018-06-01T18:25:56.817Z,57.93
2018-06-01T18:28:23.195Z,55.57
2018-06-01T18:30:49.583Z,54.07
2018-06-01T18:33:16.670Z,53.17
2018-06-01T18:35:43.096Z,49.67
2018-06-01T18:38:09.495Z,49.13
2018-06-01T18:40:36.115Z,47.90
2018-06-01T18:43:02.832Z,43.80
2018-06-01T18:45:30.209Z,45.40
2018-06-01T18:47:57.435Z,45.90
2018-06-01T18:50:24.481Z,46.73
2018-06-01T18:52:51.495Z,43.83
2018-06-01T18:55:18.600Z,42.50
2018-06-01T18:57:44.964Z,38.67
2018-06-01T19:00:11.543Z,37.33
2018-06-01T19:02:38.364Z,37.03
2018-06-01T19:05:05.067Z,34.40
2018-06-01T19:07:32.291Z,35.00
2018-06-01T19:09:58.651Z,32.67
2018-06-01T19:12:26.412Z,31.83
2018-06-01T19:14:52.808Z,32.13
2018-06-01T19:17:19.176Z,29.73
2018-06-01T19:19:45.593Z,30.07
2018-06-01T19:22:13.179Z,31.50
2018-06-01T19:27:32.208Z,30.10
2018-06-01T19:29:58.738Z,32.10
2018-06-01T19:32:25.858Z,32.23
2018-06-01T19:34:52.906Z,32.40
2018-06-01T19:37:19.347Z,33.13
2018-06-01T19:39:45.805Z,33.87
2018-06-01T19:42:12.260Z,35.07
2018-06-01T19:44:39.749Z,36.63
2018-06-01T19:47:06.992Z,36.53
2018-06-01T19:49:33.364Z,38.70
2018-06-01T19:51:59.486Z,40.87
2018-06-01T19:54:25.663Z,40.53
2018-06-01T19:56:51.854Z,38.30
2018-06-01T19:59:18.042Z,40.97
2018-06-01T20:01:44.384Z,41.80
2018-06-01T20:04:11.723Z,42.23
2018-06-01T20:06:43.155Z,41.57
2018-06-01T20:09:09.296Z,42.70
2018-06-01T20:11:35.748Z,47.20
2018-06-01T20:14:02.910Z,44.47
2018-06-01T20:16:29.127Z,42.97
2018-06-01T20:18:55.394Z,42.50
2018-06-01T20:21:21.535Z,45.23
2018-06-01T20:23:47.942Z,45.90
2018-06-01T20:26:19.875Z,44.73
2018-06-01T20:28:45.999Z,44.67
2018-06-01T20:31:12.169Z,43.60
2018-06-01T20:33:40.208Z,43.03
2018-06-01T20:36:06.599Z,42.03
2018-06-01T20:38:32.822Z,44.33
2018-06-01T20:40:59.095Z,42.93
2018-06-01T20:43:25.262Z,41.67
2018-06-01T20:45:51.553Z,40.10
2018-06-01T20:48:18.467Z,43.43
2018-06-01T20:50:44.689Z,41.63
2018-06-01T20:53:10.843Z,42.70
2018-06-01T20:55:37.012Z,38.20
2018-06-01T20:58:03.180Z,39.07
2018-06-01T21:00:30.066Z,41.33
2018-06-01T21:02:56.267Z,42.13
2018-06-01T21:05:22.415Z,43.20
2018-06-01T21:07:49.450Z,39.33
2018-06-01T21:10:15.582Z,41.10
2018-06-01T21:12:41.706Z,42.50
2018-06-01T21:15:07.926Z,42.90
2018-06-01T21:17:34.301Z,40.03
2018-06-01T21:20:00.718Z,41.73
2018-06-01T21:22:27.051Z,44.43
2018-06-01T21:24:53.390Z,44.37
2018-06-01T21:27:19.715Z,40.47
2018-06-01T21:29:46.875Z,40.90
2018-06-01T21:32:13.292Z,40.87
2018-06-01T21:34:39.651Z,40.27
2018-06-01T21:37:06.723Z,39.03
2018-06-01T21:39:33.601Z,41.40
2018-06-01T21:41:59.738Z,39.90
2018-06-01T21:44:27.699Z,39.30
2018-06-01T21:46:53.859Z,37.27
2018-06-01T21:49:20.864Z,37.20
2018-06-01T21:51:47.101Z,38.97
2018-06-01T21:54:13.264Z,40.10
2018-06-01T21:56:39.462Z,38.90
2018-06-01T21:59:05.594Z,40.17
2018-06-01T22:01:31.778Z,41.20
2018-06-01T22:03:57.898Z,40.60
2018-06-01T22:06:24.036Z,41.70
2018-06-01T22:08:50.730Z,42.67
2018-06-01T22:11:16.874Z,45.90
2018-06-01T22:13:43.220Z,47.73
2018-06-01T22:16:10.334Z,47.53
2018-06-01T22:18:36.590Z,48.00
2018-06-01T22:21:02.744Z,45.90
2018-06-01T22:23:42.974Z,47.60
2018-06-01T22:26:13.529Z,45.77
2018-06-01T22:28:39.860Z,46.87
2018-06-01T22:31:06.211Z,48.10
2018-06-01T22:33:32.521Z,47.30
2018-06-01T22:35:58.925Z,47.90
2018-06-01T22:38:25.269Z,46.30
2018-06-01T22:40:51.663Z,45.57
2018-06-01T22:43:17.989Z,46.83
2018-06-01T22:45:45.013Z,46.07
2018-06-01T22:48:11.344Z,46.77
2018-06-01T22:50:37.737Z,44.43
2018-06-01T22:53:04.876Z,42.70
2018-06-01T22:55:31.189Z,45.03
2018-06-01T22:57:57.509Z,46.10
2018-06-01T23:00:25.716Z,48.63
2018-06-01T23:02:52.036Z,49.00
2018-06-01T23:05:18.332Z,48.03
2018-06-01T23:07:45.316Z,47.33
2018-06-01T23:13:09.937Z,44.33
2018-06-01T23:15:36.282Z,46.07
2018-06-01T23:18:02.527Z,47.70
2018-06-01T23:20:29.544Z,48.67
2018-06-01T23:22:55.771Z,49.87
2018-06-01T23:25:22.887Z,50.93
2018-06-01T23:27:49.263Z,47.80
2018-06-01T23:30:16.640Z,47.53
2018-06-01T23:32:42.877Z,45.20
2018-06-01T23:35:09.279Z,50.07
2018-06-01T23:37:35.513Z,47.87
2018-06-01T23:40:01.749Z,47.90
2018-06-01T23:42:28.034Z,48.63
2018-06-01T23:44:54.292Z,47.50
2018-06-01T23:47:20.575Z,46.80
2018-06-01T23:49:46.808Z,45.43
2018-06-01T23:52:13.105Z,46.30
2018-06-01T23:54:40.089Z,46.87
2018-06-01T23:57:06.414Z,45.37
2018-06-01T23:59:32.692Z,44.80
